sensor_id;sensor_type;location;lat;lon;timestamp;P1;durP1;ratioP1;P2;durP2;ratioP2
63342;SDS011;49465;57.664;39.686;2023-04-06T00:01:55;2.80;;;2.42;;
63342;SDS011;49465;57.664;39.686;2023-04-06T00:04:21;2.90;;;2.33;;
63342;SDS011;49465;57.664;39.686;2023-04-06T00:06:51;3.28;;;2.47;;
63342;SDS011;49465;57.664;39.686;2023-04-06T00:09:20;2.72;;;2.42;;
63342;SDS011;49465;57.664;39.686;2023-04-06T00:11:49;3.55;;;2.38;;
63342;SDS011;49465;57.664;39.686;2023-04-06T00:14:16;3.60;;;2.60;;
63342;SDS011;49465;57.664;39.686;2023-04-06T00:16:42;2.95;;;2.47;;
63342;SDS011;49465;57.664;39.686;2023-04-06T00:19:12;2.97;;;2.42;;
63342;SDS011;49465;57.664;39.686;2023-04-06T00:21:38;3.03;;;2.53;;
63342;SDS011;49465;57.664;39.686;2023-04-06T00:24:07;4.15;;;2.70;;
63342;SDS011;49465;57.664;39.686;2023-04-06T00:26:34;3.78;;;2.50;;
63342;SDS011;49465;57.664;39.686;2023-04-06T00:29:00;2.47;;;2.00;;
63342;SDS011;49465;57.664;39.686;2023-04-06T00:31:26;3.13;;;2.25;;
63342;SDS011;49465;57.664;39.686;2023-04-06T00:33:53;2.75;;;2.20;;
63342;SDS011;49465;57.664;39.686;2023-04-06T00:36:22;2.70;;;2.10;;
63342;SDS011;49465;57.664;39.686;2023-04-06T00:38:48;2.45;;;2.10;;
63342;SDS011;49465;57.664;39.686;2023-04-06T00:41:15;2.63;;;1.95;;
63342;SDS011;49465;57.664;39.686;2023-04-06T00:43:42;2.65;;;2.22;;
63342;SDS011;49465;57.664;39.686;2023-04-06T00:46:09;2.78;;;2.03;;
63342;SDS011;49465;57.664;39.686;2023-04-06T00:48:35;2.45;;;2.00;;
63342;SDS011;49465;57.664;39.686;2023-04-06T00:51:04;3.15;;;2.25;;
63342;SDS011;49465;57.664;39.686;2023-04-06T00:53:31;2.88;;;2.10;;
63342;SDS011;49465;57.664;39.686;2023-04-06T00:55:57;2.75;;;2.10;;
63342;SDS011;49465;57.664;39.686;2023-04-06T00:58:29;2.20;;;1.85;;
63342;SDS011;49465;57.664;39.686;2023-04-06T01:00:56;3.10;;;2.10;;
63342;SDS011;49465;57.664;39.686;2023-04-06T01:03:22;3.20;;;2.20;;
63342;SDS011;49465;57.664;39.686;2023-04-06T01:05:51;2.10;;;1.90;;
63342;SDS011;49465;57.664;39.686;2023-04-06T01:08:23;2.20;;;1.90;;
63342;SDS011;49465;57.664;39.686;2023-04-06T01:10:52;2.50;;;2.17;;
63342;SDS011;49465;57.664;39.686;2023-04-06T01:13:19;2.40;;;1.90;;
63342;SDS011;49465;57.664;39.686;2023-04-06T01:15:46;2.00;;;1.80;;
63342;SDS011;49465;57.664;39.686;2023-04-06T01:18:12;2.85;;;2.10;;
63342;SDS011;49465;57.664;39.686;2023-04-06T01:20:39;2.28;;;1.80;;
63342;SDS011;49465;57.664;39.686;2023-04-06T01:23:05;2.10;;;1.80;;
63342;SDS011;49465;57.664;39.686;2023-04-06T01:25:34;2.55;;;2.15;;
63342;SDS011;49465;57.664;39.686;2023-04-06T01:28:03;2.30;;;1.80;;
63342;SDS011;49465;57.664;39.686;2023-04-06T01:30:30;2.92;;;2.00;;
63342;SDS011;49465;57.664;39.686;2023-04-06T01:32:56;2.65;;;2.05;;
63342;SDS011;49465;57.664;39.686;2023-04-06T01:35:22;2.58;;;1.90;;
63342;SDS011;49465;57.664;39.686;2023-04-06T01:37:51;2.92;;;2.00;;
63342;SDS011;49465;57.664;39.686;2023-04-06T01:40:20;2.95;;;2.00;;
63342;SDS011;49465;57.664;39.686;2023-04-06T01:42:47;2.80;;;2.10;;
63342;SDS011;49465;57.664;39.686;2023-04-06T01:45:13;3.35;;;1.98;;
63342;SDS011;49465;57.664;39.686;2023-04-06T01:47:39;2.60;;;1.98;;
63342;SDS011;49465;57.664;39.686;2023-04-06T01:50:06;3.47;;;2.30;;
63342;SDS011;49465;57.664;39.686;2023-04-06T01:52:33;3.15;;;2.10;;
63342;SDS011;49465;57.664;39.686;2023-04-06T01:54:59;2.22;;;1.85;;
63342;SDS011;49465;57.664;39.686;2023-04-06T01:57:29;2.53;;;2.10;;
63342;SDS011;49465;57.664;39.686;2023-04-06T01:59:55;2.45;;;2.00;;
63342;SDS011;49465;57.664;39.686;2023-04-06T02:02:24;2.22;;;1.92;;
63342;SDS011;49465;57.664;39.686;2023-04-06T02:04:53;2.22;;;1.77;;
63342;SDS011;49465;57.664;39.686;2023-04-06T02:07:22;2.22;;;1.90;;
63342;SDS011;49465;57.664;39.686;2023-04-06T02:09:57;2.05;;;1.65;;
63342;SDS011;49465;57.664;39.686;2023-04-06T02:12:24;2.17;;;1.77;;
63342;SDS011;49465;57.664;39.686;2023-04-06T02:14:50;2.33;;;2.00;;
63342;SDS011;49465;57.664;39.686;2023-04-06T02:17:22;2.97;;;2.00;;
63342;SDS011;49465;57.664;39.686;2023-04-06T02:19:51;3.00;;;1.83;;
63342;SDS011;49465;57.664;39.686;2023-04-06T02:22:20;2.72;;;2.00;;
63342;SDS011;49465;57.664;39.686;2023-04-06T02:24:51;2.20;;;2.00;;
63342;SDS011;49465;57.664;39.686;2023-04-06T02:27:20;2.55;;;1.90;;
63342;SDS011;49465;57.664;39.686;2023-04-06T02:29:47;2.70;;;2.25;;
63342;SDS011;49465;57.664;39.686;2023-04-06T02:32:13;2.10;;;1.88;;
63342;SDS011;49465;57.664;39.686;2023-04-06T02:34:39;3.20;;;1.80;;
63342;SDS011;49465;57.664;39.686;2023-04-06T02:37:06;2.80;;;2.03;;
63342;SDS011;49465;57.664;39.686;2023-04-06T02:39:32;3.05;;;2.00;;
63342;SDS011;49465;57.664;39.686;2023-04-06T02:41:59;3.95;;;2.17;;
63342;SDS011;49465;57.664;39.686;2023-04-06T02:44:25;2.28;;;1.90;;
63342;SDS011;49465;57.664;39.686;2023-04-06T02:46:51;2.22;;;1.92;;
63342;SDS011;49465;57.664;39.686;2023-04-06T02:49:21;2.22;;;1.80;;
63342;SDS011;49465;57.664;39.686;2023-04-06T02:51:49;2.00;;;1.70;;
63342;SDS011;49465;57.664;39.686;2023-04-06T02:54:27;2.17;;;1.98;;
63342;SDS011;49465;57.664;39.686;2023-04-06T02:57:02;2.28;;;1.85;;
63342;SDS011;49465;57.664;39.686;2023-04-06T02:59:29;3.67;;;2.00;;
63342;SDS011;49465;57.664;39.686;2023-04-06T03:02:00;3.47;;;2.20;;
63342;SDS011;49465;57.664;39.686;2023-04-06T03:04:27;2.45;;;1.98;;
63342;SDS011;49465;57.664;39.686;2023-04-06T03:07:01;2.35;;;2.03;;
63342;SDS011;49465;57.664;39.686;2023-04-06T03:09:33;2.60;;;1.90;;
63342;SDS011;49465;57.664;39.686;2023-04-06T03:12:05;2.38;;;1.98;;
63342;SDS011;49465;57.664;39.686;2023-04-06T03:14:37;3.45;;;2.10;;
63342;SDS011;49465;57.664;39.686;2023-04-06T03:17:12;2.95;;;2.30;;
63342;SDS011;49465;57.664;39.686;2023-04-06T03:19:39;2.20;;;1.80;;
63342;SDS011;49465;57.664;39.686;2023-04-06T03:22:06;2.95;;;2.10;;
63342;SDS011;49465;57.664;39.686;2023-04-06T03:24:35;2.50;;;1.98;;
63342;SDS011;49465;57.664;39.686;2023-04-06T03:27:06;2.92;;;2.03;;
63342;SDS011;49465;57.664;39.686;2023-04-06T03:29:40;3.20;;;1.95;;
63342;SDS011;49465;57.664;39.686;2023-04-06T03:32:16;2.42;;;1.92;;
63342;SDS011;49465;57.664;39.686;2023-04-06T03:34:45;2.55;;;2.08;;
63342;SDS011;49465;57.664;39.686;2023-04-06T03:37:11;2.58;;;1.90;;
63342;SDS011;49465;57.664;39.686;2023-04-06T03:39:41;2.92;;;1.80;;
63342;SDS011;49465;57.664;39.686;2023-04-06T03:42:07;3.70;;;1.92;;
63342;SDS011;49465;57.664;39.686;2023-04-06T03:44:36;3.47;;;2.03;;
63342;SDS011;49465;57.664;39.686;2023-04-06T03:47:02;3.30;;;2.05;;
63342;SDS011;49465;57.664;39.686;2023-04-06T03:49:29;2.80;;;1.92;;
63342;SDS011;49465;57.664;39.686;2023-04-06T03:51:56;2.30;;;1.80;;
63342;SDS011;49465;57.664;39.686;2023-04-06T03:54:22;3.58;;;2.00;;
63342;SDS011;49465;57.664;39.686;2023-04-06T03:56:48;3.08;;;1.92;;
63342;SDS011;49465;57.664;39.686;2023-04-06T03:59:15;1.92;;;1.60;;
63342;SDS011;49465;57.664;39.686;2023-04-06T04:01:41;3.05;;;2.00;;
63342;SDS011;49465;57.664;39.686;2023-04-06T04:04:08;3.38;;;2.10;;
63342;SDS011;49465;57.664;39.686;2023-04-06T04:06:35;2.25;;;2.00;;
63342;SDS011;49465;57.664;39.686;2023-04-06T04:09:01;3.25;;;2.20;;
63342;SDS011;49465;57.664;39.686;2023-04-06T04:11:31;2.72;;;2.10;;
63342;SDS011;49465;57.664;39.686;2023-04-06T04:14:06;3.85;;;2.17;;
63342;SDS011;49465;57.664;39.686;2023-04-06T04:16:35;3.45;;;1.90;;
63342;SDS011;49465;57.664;39.686;2023-04-06T04:19:06;3.05;;;1.98;;
63342;SDS011;49465;57.664;39.686;2023-04-06T04:21:41;2.97;;;1.92;;
63342;SDS011;49465;57.664;39.686;2023-04-06T04:24:09;3.10;;;2.00;;
63342;SDS011;49465;57.664;39.686;2023-04-06T04:26:36;4.03;;;2.10;;
63342;SDS011;49465;57.664;39.686;2023-04-06T04:29:03;3.03;;;2.03;;
63342;SDS011;49465;57.664;39.686;2023-04-06T04:31:30;3.05;;;2.03;;
63342;SDS011;49465;57.664;39.686;2023-04-06T04:33:57;3.85;;;2.38;;
63342;SDS011;49465;57.664;39.686;2023-04-06T04:36:25;3.25;;;1.92;;
63342;SDS011;49465;57.664;39.686;2023-04-06T04:39:03;1.88;;;1.70;;
63342;SDS011;49465;57.664;39.686;2023-04-06T04:41:34;3.65;;;2.00;;
63342;SDS011;49465;57.664;39.686;2023-04-06T04:44:03;2.47;;;1.50;;
63342;SDS011;49465;57.664;39.686;2023-04-06T04:46:32;2.83;;;1.80;;
63342;SDS011;49465;57.664;39.686;2023-04-06T04:49:05;3.33;;;1.98;;
63342;SDS011;49465;57.664;39.686;2023-04-06T04:51:31;2.72;;;1.90;;
63342;SDS011;49465;57.664;39.686;2023-04-06T04:54:01;4.10;;;1.42;;
63342;SDS011;49465;57.664;39.686;2023-04-06T04:56:30;3.25;;;1.70;;
63342;SDS011;49465;57.664;39.686;2023-04-06T04:59:08;3.25;;;1.90;;
63342;SDS011;49465;57.664;39.686;2023-04-06T05:01:43;2.53;;;1.60;;
63342;SDS011;49465;57.664;39.686;2023-04-06T05:04:09;4.03;;;1.67;;
63342;SDS011;49465;57.664;39.686;2023-04-06T05:06:38;4.95;;;1.63;;
63342;SDS011;49465;57.664;39.686;2023-04-06T05:09:05;2.42;;;1.40;;
63342;SDS011;49465;57.664;39.686;2023-04-06T05:11:34;3.50;;;1.30;;
63342;SDS011;49465;57.664;39.686;2023-04-06T05:14:00;3.25;;;1.60;;
63342;SDS011;49465;57.664;39.686;2023-04-06T05:16:31;2.53;;;1.60;;
63342;SDS011;49465;57.664;39.686;2023-04-06T05:19:01;3.45;;;1.50;;
63342;SDS011;49465;57.664;39.686;2023-04-06T05:21:31;2.20;;;1.50;;
63342;SDS011;49465;57.664;39.686;2023-04-06T05:24:00;2.25;;;1.30;;
63342;SDS011;49465;57.664;39.686;2023-04-06T05:26:30;2.90;;;1.40;;
63342;SDS011;49465;57.664;39.686;2023-04-06T05:28:59;2.05;;;1.27;;
63342;SDS011;49465;57.664;39.686;2023-04-06T05:31:29;2.33;;;1.30;;
63342;SDS011;49465;57.664;39.686;2023-04-06T05:33:56;3.72;;;1.40;;
63342;SDS011;49465;57.664;39.686;2023-04-06T05:36:28;3.55;;;1.58;;
63342;SDS011;49465;57.664;39.686;2023-04-06T05:39:01;1.70;;;0.90;;
63342;SDS011;49465;57.664;39.686;2023-04-06T05:41:28;2.22;;;1.30;;
63342;SDS011;49465;57.664;39.686;2023-04-06T05:43:54;3.53;;;1.45;;
63342;SDS011;49465;57.664;39.686;2023-04-06T05:46:26;3.05;;;1.30;;
63342;SDS011;49465;57.664;39.686;2023-04-06T05:48:58;1.92;;;1.27;;
63342;SDS011;49465;57.664;39.686;2023-04-06T05:51:27;2.30;;;1.10;;
63342;SDS011;49465;57.664;39.686;2023-04-06T05:53:54;2.40;;;1.30;;
63342;SDS011;49465;57.664;39.686;2023-04-06T05:56:20;3.30;;;1.23;;
63342;SDS011;49465;57.664;39.686;2023-04-06T05:58:47;3.83;;;1.25;;
63342;SDS011;49465;57.664;39.686;2023-04-06T06:01:13;3.13;;;1.20;;
63342;SDS011;49465;57.664;39.686;2023-04-06T06:03:40;2.75;;;1.20;;
63342;SDS011;49465;57.664;39.686;2023-04-06T06:06:17;2.42;;;1.27;;
63342;SDS011;49465;57.664;39.686;2023-04-06T06:08:43;1.35;;;1.00;;
63342;SDS011;49465;57.664;39.686;2023-04-06T06:11:10;3.70;;;1.60;;
63342;SDS011;49465;57.664;39.686;2023-04-06T06:13:37;3.85;;;1.20;;
63342;SDS011;49465;57.664;39.686;2023-04-06T06:16:09;3.92;;;1.33;;
63342;SDS011;49465;57.664;39.686;2023-04-06T06:18:35;4.28;;;1.45;;
63342;SDS011;49465;57.664;39.686;2023-04-06T06:21:04;4.20;;;1.15;;
63342;SDS011;49465;57.664;39.686;2023-04-06T06:23:31;2.42;;;1.30;;
63342;SDS011;49465;57.664;39.686;2023-04-06T06:25:57;3.40;;;1.30;;
63342;SDS011;49465;57.664;39.686;2023-04-06T06:28:24;3.30;;;1.35;;
63342;SDS011;49465;57.664;39.686;2023-04-06T06:30:50;2.42;;;1.30;;
63342;SDS011;49465;57.664;39.686;2023-04-06T06:33:17;2.58;;;1.10;;
63342;SDS011;49465;57.664;39.686;2023-04-06T06:35:43;3.10;;;1.30;;
63342;SDS011;49465;57.664;39.686;2023-04-06T06:38:10;3.05;;;1.10;;
63342;SDS011;49465;57.664;39.686;2023-04-06T06:40:45;2.08;;;1.10;;
63342;SDS011;49465;57.664;39.686;2023-04-06T06:43:14;5.43;;;1.30;;
63342;SDS011;49465;57.664;39.686;2023-04-06T06:45:43;1.70;;;1.00;;
63342;SDS011;49465;57.664;39.686;2023-04-06T06:48:10;1.30;;;0.95;;
63342;SDS011;49465;57.664;39.686;2023-04-06T06:50:42;3.03;;;1.05;;
63342;SDS011;49465;57.664;39.686;2023-04-06T06:53:10;1.67;;;1.00;;
63342;SDS011;49465;57.664;39.686;2023-04-06T06:55:37;3.67;;;1.20;;
63342;SDS011;49465;57.664;39.686;2023-04-06T06:58:03;3.65;;;1.00;;
63342;SDS011;49465;57.664;39.686;2023-04-06T07:00:31;2.20;;;1.00;;
63342;SDS011;49465;57.664;39.686;2023-04-06T07:03:00;2.40;;;1.00;;
63342;SDS011;49465;57.664;39.686;2023-04-06T07:05:26;3.15;;;1.17;;
63342;SDS011;49465;57.664;39.686;2023-04-06T07:07:55;2.22;;;1.00;;
63342;SDS011;49465;57.664;39.686;2023-04-06T07:10:22;1.88;;;0.68;;
63342;SDS011;49465;57.664;39.686;2023-04-06T07:12:50;2.90;;;0.98;;
63342;SDS011;49465;57.664;39.686;2023-04-06T07:15:17;4.28;;;0.90;;
63342;SDS011;49465;57.664;39.686;2023-04-06T07:17:43;3.45;;;0.95;;
63342;SDS011;49465;57.664;39.686;2023-04-06T07:20:10;1.52;;;0.88;;
63342;SDS011;49465;57.664;39.686;2023-04-06T07:22:42;3.83;;;0.90;;
63342;SDS011;49465;57.664;39.686;2023-04-06T07:25:09;2.30;;;0.80;;
63342;SDS011;49465;57.664;39.686;2023-04-06T07:27:36;1.30;;;0.93;;
63342;SDS011;49465;57.664;39.686;2023-04-06T07:30:03;2.78;;;1.10;;
63342;SDS011;49465;57.664;39.686;2023-04-06T07:32:30;2.42;;;1.15;;
63342;SDS011;49465;57.664;39.686;2023-04-06T07:34:57;1.00;;;0.70;;
63342;SDS011;49465;57.664;39.686;2023-04-06T07:37:26;1.73;;;0.80;;
63342;SDS011;49465;57.664;39.686;2023-04-06T07:39:52;2.05;;;0.80;;
63342;SDS011;49465;57.664;39.686;2023-04-06T07:42:22;3.47;;;0.90;;
63342;SDS011;49465;57.664;39.686;2023-04-06T07:44:48;1.88;;;0.98;;
63342;SDS011;49465;57.664;39.686;2023-04-06T07:47:14;1.23;;;0.90;;
63342;SDS011;49465;57.664;39.686;2023-04-06T07:49:41;2.13;;;0.90;;
63342;SDS011;49465;57.664;39.686;2023-04-06T07:52:07;1.35;;;1.10;;
63342;SDS011;49465;57.664;39.686;2023-04-06T07:54:33;1.05;;;0.90;;
63342;SDS011;49465;57.664;39.686;2023-04-06T07:57:00;1.23;;;0.80;;
63342;SDS011;49465;57.664;39.686;2023-04-06T07:59:29;2.17;;;0.80;;
63342;SDS011;49465;57.664;39.686;2023-04-06T08:01:55;0.80;;;0.60;;
63342;SDS011;49465;57.664;39.686;2023-04-06T08:04:21;1.10;;;0.80;;
63342;SDS011;49465;57.664;39.686;2023-04-06T08:06:47;2.50;;;0.90;;
63342;SDS011;49465;57.664;39.686;2023-04-06T08:09:14;2.08;;;0.90;;
63342;SDS011;49465;57.664;39.686;2023-04-06T08:11:40;3.28;;;1.00;;
63342;SDS011;49465;57.664;39.686;2023-04-06T08:14:07;3.05;;;0.80;;
63342;SDS011;49465;57.664;39.686;2023-04-06T08:16:33;2.05;;;0.88;;
63342;SDS011;49465;57.664;39.686;2023-04-06T08:18:59;1.13;;;0.70;;
63342;SDS011;49465;57.664;39.686;2023-04-06T08:21:26;1.10;;;0.80;;
63342;SDS011;49465;57.664;39.686;2023-04-06T08:23:55;1.70;;;0.70;;
63342;SDS011;49465;57.664;39.686;2023-04-06T08:26:21;3.08;;;0.80;;
63342;SDS011;49465;57.664;39.686;2023-04-06T08:28:48;1.70;;;0.70;;
63342;SDS011;49465;57.664;39.686;2023-04-06T08:31:14;0.88;;;0.50;;
63342;SDS011;49465;57.664;39.686;2023-04-06T08:33:40;2.17;;;0.60;;
63342;SDS011;49465;57.664;39.686;2023-04-06T08:36:10;0.65;;;0.57;;
63342;SDS011;49465;57.664;39.686;2023-04-06T08:38:38;1.05;;;0.55;;
63342;SDS011;49465;57.664;39.686;2023-04-06T08:41:13;1.17;;;0.57;;
63342;SDS011;49465;57.664;39.686;2023-04-06T08:46:25;1.30;;;0.70;;
63342;SDS011;49465;57.664;39.686;2023-04-06T08:48:55;1.63;;;0.52;;
63342;SDS011;49465;57.664;39.686;2023-04-06T08:51:25;1.20;;;0.70;;
63342;SDS011;49465;57.664;39.686;2023-04-06T08:53:54;1.05;;;0.68;;
63342;SDS011;49465;57.664;39.686;2023-04-06T08:56:26;3.10;;;0.85;;
63342;SDS011;49465;57.664;39.686;2023-04-06T08:58:56;0.75;;;0.70;;
63342;SDS011;49465;57.664;39.686;2023-04-06T09:01:25;3.63;;;1.35;;
63342;SDS011;49465;57.664;39.686;2023-04-06T09:03:59;2.03;;;1.27;;
63342;SDS011;49465;57.664;39.686;2023-04-06T09:06:26;2.03;;;1.15;;
63342;SDS011;49465;57.664;39.686;2023-04-06T09:08:52;1.17;;;0.80;;
63342;SDS011;49465;57.664;39.686;2023-04-06T09:11:20;2.60;;;0.82;;
63342;SDS011;49465;57.664;39.686;2023-04-06T09:13:50;1.83;;;0.80;;
63342;SDS011;49465;57.664;39.686;2023-04-06T09:16:22;2.75;;;0.80;;
63342;SDS011;49465;57.664;39.686;2023-04-06T09:18:50;0.95;;;0.70;;
63342;SDS011;49465;57.664;39.686;2023-04-06T09:21:17;1.05;;;0.70;;
63342;SDS011;49465;57.664;39.686;2023-04-06T09:23:45;1.70;;;0.80;;
63342;SDS011;49465;57.664;39.686;2023-04-06T09:26:13;1.40;;;0.70;;
63342;SDS011;49465;57.664;39.686;2023-04-06T09:28:45;1.10;;;0.70;;
63342;SDS011;49465;57.664;39.686;2023-04-06T09:31:13;1.80;;;0.70;;
63342;SDS011;49465;57.664;39.686;2023-04-06T09:33:41;1.88;;;0.90;;
63342;SDS011;49465;57.664;39.686;2023-04-06T09:36:10;0.90;;;0.50;;
63342;SDS011;49465;57.664;39.686;2023-04-06T09:38:51;0.82;;;0.70;;
63342;SDS011;49465;57.664;39.686;2023-04-06T09:41:25;0.88;;;0.50;;
63342;SDS011;49465;57.664;39.686;2023-04-06T09:46:36;2.35;;;0.70;;
63342;SDS011;49465;57.664;39.686;2023-04-06T09:49:04;2.25;;;0.50;;
63342;SDS011;49465;57.664;39.686;2023-04-06T09:51:42;0.75;;;0.50;;
63342;SDS011;49465;57.664;39.686;2023-04-06T09:54:15;3.50;;;0.60;;
63342;SDS011;49465;57.664;39.686;2023-04-06T09:59:34;1.58;;;0.60;;
63342;SDS011;49465;57.664;39.686;2023-04-06T10:02:08;2.03;;;0.95;;
63342;SDS011;49465;57.664;39.686;2023-04-06T10:04:53;1.10;;;0.70;;
63342;SDS011;49465;57.664;39.686;2023-04-06T10:07:30;1.10;;;0.50;;
63342;SDS011;49465;57.664;39.686;2023-04-06T10:10:01;1.40;;;0.60;;
63342;SDS011;49465;57.664;39.686;2023-04-06T10:12:31;2.45;;;0.65;;
63342;SDS011;49465;57.664;39.686;2023-04-06T10:14:58;1.42;;;0.65;;
63342;SDS011;49465;57.664;39.686;2023-04-06T10:17:25;1.33;;;0.77;;
63342;SDS011;49465;57.664;39.686;2023-04-06T10:20:27;1.08;;;0.60;;
63342;SDS011;49465;57.664;39.686;2023-04-06T10:23:09;2.45;;;0.75;;
63342;SDS011;49465;57.664;39.686;2023-04-06T10:25:54;1.48;;;0.70;;
63342;SDS011;49465;57.664;39.686;2023-04-06T10:28:21;0.93;;;0.60;;
63342;SDS011;49465;57.664;39.686;2023-04-06T10:30:49;2.63;;;0.80;;
63342;SDS011;49465;57.664;39.686;2023-04-06T10:33:21;2.93;;;0.90;;
63342;SDS011;49465;57.664;39.686;2023-04-06T10:35:48;1.10;;;0.80;;
63342;SDS011;49465;57.664;39.686;2023-04-06T10:38:14;2.30;;;0.68;;
63342;SDS011;49465;57.664;39.686;2023-04-06T10:40:47;2.15;;;0.70;;
63342;SDS011;49465;57.664;39.686;2023-04-06T10:43:20;0.88;;;0.60;;
63342;SDS011;49465;57.664;39.686;2023-04-06T10:45:54;1.50;;;0.70;;
63342;SDS011;49465;57.664;39.686;2023-04-06T10:48:22;2.08;;;0.82;;
63342;SDS011;49465;57.664;39.686;2023-04-06T10:51:01;0.63;;;0.60;;
63342;SDS011;49465;57.664;39.686;2023-04-06T10:53:38;0.90;;;0.50;;
63342;SDS011;49465;57.664;39.686;2023-04-06T10:56:14;1.65;;;0.60;;
63342;SDS011;49465;57.664;39.686;2023-04-06T10:58:50;1.77;;;0.50;;
63342;SDS011;49465;57.664;39.686;2023-04-06T11:01:18;1.00;;;0.57;;
63342;SDS011;49465;57.664;39.686;2023-04-06T11:03:55;1.08;;;0.60;;
63342;SDS011;49465;57.664;39.686;2023-04-06T11:06:25;0.60;;;0.40;;
63342;SDS011;49465;57.664;39.686;2023-04-06T11:08:54;1.90;;;0.60;;
63342;SDS011;49465;57.664;39.686;2023-04-06T11:11:22;0.80;;;0.50;;
63342;SDS011;49465;57.664;39.686;2023-04-06T11:13:55;2.38;;;0.70;;
63342;SDS011;49465;57.664;39.686;2023-04-06T11:29:06;0.88;;;0.40;;
63342;SDS011;49465;57.664;39.686;2023-04-06T11:31:39;1.30;;;0.50;;
63342;SDS011;49465;57.664;39.686;2023-04-06T11:34:17;1.13;;;0.68;;
63342;SDS011;49465;57.664;39.686;2023-04-06T11:36:45;1.67;;;0.70;;
63342;SDS011;49465;57.664;39.686;2023-04-06T11:42:28;0.55;;;0.35;;
63342;SDS011;49465;57.664;39.686;2023-04-06T11:44:55;1.30;;;0.60;;
63342;SDS011;49465;57.664;39.686;2023-04-06T11:47:33;1.92;;;0.95;;
63342;SDS011;49465;57.664;39.686;2023-04-06T11:52:41;0.95;;;0.70;;
63342;SDS011;49465;57.664;39.686;2023-04-06T11:55:14;1.25;;;0.52;;
63342;SDS011;49465;57.664;39.686;2023-04-06T11:57:44;1.40;;;0.65;;
63342;SDS011;49465;57.664;39.686;2023-04-06T12:00:11;2.05;;;0.80;;
63342;SDS011;49465;57.664;39.686;2023-04-06T12:02:38;1.15;;;0.70;;
63342;SDS011;49465;57.664;39.686;2023-04-06T12:05:05;0.70;;;0.40;;
63342;SDS011;49465;57.664;39.686;2023-04-06T12:07:35;1.63;;;0.50;;
63342;SDS011;49465;57.664;39.686;2023-04-06T12:10:02;1.83;;;0.70;;
63342;SDS011;49465;57.664;39.686;2023-04-06T12:12:29;0.93;;;0.63;;
63342;SDS011;49465;57.664;39.686;2023-04-06T12:14:56;2.83;;;0.50;;
63342;SDS011;49465;57.664;39.686;2023-04-06T12:17:23;1.23;;;0.68;;
63342;SDS011;49465;57.664;39.686;2023-04-06T12:19:50;2.35;;;1.00;;
63342;SDS011;49465;57.664;39.686;2023-04-06T12:22:17;1.00;;;0.70;;
63342;SDS011;49465;57.664;39.686;2023-04-06T12:24:43;1.85;;;0.70;;
63342;SDS011;49465;57.664;39.686;2023-04-06T12:27:10;0.98;;;0.50;;
63342;SDS011;49465;57.664;39.686;2023-04-06T12:29:37;1.42;;;0.50;;
63342;SDS011;49465;57.664;39.686;2023-04-06T12:32:03;3.38;;;0.63;;
63342;SDS011;49465;57.664;39.686;2023-04-06T12:34:33;1.83;;;0.50;;
63342;SDS011;49465;57.664;39.686;2023-04-06T12:37:00;1.08;;;0.50;;
63342;SDS011;49465;57.664;39.686;2023-04-06T12:39:32;0.73;;;0.60;;
63342;SDS011;49465;57.664;39.686;2023-04-06T12:44:30;1.17;;;0.55;;
63342;SDS011;49465;57.664;39.686;2023-04-06T12:46:56;3.75;;;0.60;;
63342;SDS011;49465;57.664;39.686;2023-04-06T12:49:23;0.73;;;0.70;;
63342;SDS011;49465;57.664;39.686;2023-04-06T12:51:49;0.88;;;0.60;;
63342;SDS011;49465;57.664;39.686;2023-04-06T12:54:16;2.22;;;0.60;;
63342;SDS011;49465;57.664;39.686;2023-04-06T12:56:47;1.20;;;0.40;;
63342;SDS011;49465;57.664;39.686;2023-04-06T12:59:14;1.40;;;0.40;;
63342;SDS011;49465;57.664;39.686;2023-04-06T13:01:41;1.45;;;0.57;;
63342;SDS011;49465;57.664;39.686;2023-04-06T13:04:10;1.95;;;0.50;;
63342;SDS011;49465;57.664;39.686;2023-04-06T13:06:45;0.40;;;0.40;;
63342;SDS011;49465;57.664;39.686;2023-04-06T13:09:17;0.90;;;0.60;;
63342;SDS011;49465;57.664;39.686;2023-04-06T13:11:46;1.60;;;0.50;;
63342;SDS011;49465;57.664;39.686;2023-04-06T13:14:12;0.85;;;0.63;;
63342;SDS011;49465;57.664;39.686;2023-04-06T13:16:45;0.93;;;0.60;;
63342;SDS011;49465;57.664;39.686;2023-04-06T13:19:11;1.40;;;0.57;;
63342;SDS011;49465;57.664;39.686;2023-04-06T13:21:43;1.35;;;0.50;;
63342;SDS011;49465;57.664;39.686;2023-04-06T13:24:09;2.40;;;0.70;;
63342;SDS011;49465;57.664;39.686;2023-04-06T13:26:36;0.57;;;0.50;;
63342;SDS011;49465;57.664;39.686;2023-04-06T13:29:05;1.95;;;0.88;;
63342;SDS011;49465;57.664;39.686;2023-04-06T13:31:32;3.33;;;0.73;;
63342;SDS011;49465;57.664;39.686;2023-04-06T13:33:58;0.43;;;0.40;;
63342;SDS011;49465;57.664;39.686;2023-04-06T13:36:25;1.48;;;0.60;;
63342;SDS011;49465;57.664;39.686;2023-04-06T13:38:55;1.02;;;0.60;;
63342;SDS011;49465;57.664;39.686;2023-04-06T13:41:25;1.15;;;0.50;;
63342;SDS011;49465;57.664;39.686;2023-04-06T13:43:52;0.52;;;0.30;;
63342;SDS011;49465;57.664;39.686;2023-04-06T13:46:21;0.73;;;0.50;;
63342;SDS011;49465;57.664;39.686;2023-04-06T13:48:50;0.60;;;0.60;;
63342;SDS011;49465;57.664;39.686;2023-04-06T13:51:17;0.60;;;0.50;;
63342;SDS011;49465;57.664;39.686;2023-04-06T13:53:46;0.55;;;0.50;;
63342;SDS011;49465;57.664;39.686;2023-04-06T13:56:15;0.80;;;0.60;;
63342;SDS011;49465;57.664;39.686;2023-04-06T13:58:46;0.60;;;0.47;;
63342;SDS011;49465;57.664;39.686;2023-04-06T14:01:23;0.63;;;0.50;;
63342;SDS011;49465;57.664;39.686;2023-04-06T14:04:00;1.02;;;0.50;;
63342;SDS011;49465;57.664;39.686;2023-04-06T14:06:27;0.40;;;0.40;;
63342;SDS011;49465;57.664;39.686;2023-04-06T14:08:53;1.55;;;0.60;;
63342;SDS011;49465;57.664;39.686;2023-04-06T14:11:20;1.98;;;0.80;;
63342;SDS011;49465;57.664;39.686;2023-04-06T14:13:47;2.28;;;0.60;;
63342;SDS011;49465;57.664;39.686;2023-04-06T14:16:23;0.98;;;0.70;;
63342;SDS011;49465;57.664;39.686;2023-04-06T14:18:49;2.83;;;1.70;;
63342;SDS011;49465;57.664;39.686;2023-04-06T14:21:19;2.53;;;1.52;;
63342;SDS011;49465;57.664;39.686;2023-04-06T14:23:48;1.38;;;1.00;;
63342;SDS011;49465;57.664;39.686;2023-04-06T14:26:14;1.60;;;0.70;;
63342;SDS011;49465;57.664;39.686;2023-04-06T14:28:41;1.42;;;1.13;;
63342;SDS011;49465;57.664;39.686;2023-04-06T14:31:12;1.48;;;0.82;;
63342;SDS011;49465;57.664;39.686;2023-04-06T14:33:40;1.45;;;0.80;;
63342;SDS011;49465;57.664;39.686;2023-04-06T14:36:07;2.03;;;0.70;;
63342;SDS011;49465;57.664;39.686;2023-04-06T14:38:34;2.72;;;0.80;;
63342;SDS011;49465;57.664;39.686;2023-04-06T14:41:02;4.35;;;1.52;;
63342;SDS011;49465;57.664;39.686;2023-04-06T14:43:29;3.25;;;0.93;;
63342;SDS011;49465;57.664;39.686;2023-04-06T14:45:59;1.90;;;0.70;;
63342;SDS011;49465;57.664;39.686;2023-04-06T14:48:29;3.60;;;1.30;;
63342;SDS011;49465;57.664;39.686;2023-04-06T14:50:55;1.80;;;0.98;;
63342;SDS011;49465;57.664;39.686;2023-04-06T14:53:25;2.58;;;0.63;;
63342;SDS011;49465;57.664;39.686;2023-04-06T14:55:56;2.13;;;0.70;;
63342;SDS011;49465;57.664;39.686;2023-04-06T14:58:23;1.95;;;0.90;;
63342;SDS011;49465;57.664;39.686;2023-04-06T15:00:59;1.88;;;1.20;;
63342;SDS011;49465;57.664;39.686;2023-04-06T15:03:27;2.00;;;1.52;;
63342;SDS011;49465;57.664;39.686;2023-04-06T15:05:56;2.28;;;1.30;;
63342;SDS011;49465;57.664;39.686;2023-04-06T15:08:25;1.88;;;0.75;;
63342;SDS011;49465;57.664;39.686;2023-04-06T15:10:52;0.75;;;0.57;;
63342;SDS011;49465;57.664;39.686;2023-04-06T15:13:22;0.80;;;0.60;;